createdAt,value
2023-04-16T00:00:35.955Z,64.88
2023-04-16T00:01:35.138Z,64.92
2023-04-16T00:02:35.349Z,64.61
2023-04-16T00:03:35.464Z,64.74
2023-04-16T00:04:35.263Z,64.75
2023-04-16T00:05:35.257Z,64.23
2023-04-16T00:06:35.302Z,64.20
2023-04-16T00:07:35.305Z,64.26
2023-04-16T00:08:35.326Z,64.46
2023-04-16T00:09:35.336Z,63.79
2023-04-16T00:10:35.386Z,63.68
2023-04-16T00:11:35.450Z,62.84
2023-04-16T00:12:35.446Z,62.18
2023-04-16T00:13:35.530Z,62.19
2023-04-16T00:14:35.535Z,61.94
2023-04-16T00:15:35.515Z,61.33
2023-04-16T00:16:35.596Z,61.24
2023-04-16T00:17:35.651Z,60.98
2023-04-16T00:18:35.731Z,60.70
2023-04-16T00:19:35.796Z,60.15
2023-04-16T00:20:35.707Z,60.29
2023-04-16T00:21:35.725Z,60.97
2023-04-16T00:22:35.749Z,60.60
2023-04-16T00:23:35.824Z,60.07
2023-04-16T00:24:35.827Z,60.37
2023-04-16T00:25:35.835Z,61.00
2023-04-16T00:26:35.869Z,60.74
2023-04-16T00:27:35.940Z,60.90
2023-04-16T00:28:36.024Z,60.95
2023-04-16T00:29:35.979Z,60.38
2023-04-16T00:30:36.123Z,60.24
2023-04-16T00:31:36.422Z,59.71
2023-04-16T00:32:36.155Z,60.35
2023-04-16T00:33:36.198Z,59.70
2023-04-16T00:34:36.225Z,59.85
2023-04-16T00:35:36.255Z,59.27
2023-04-16T00:36:36.274Z,58.88
2023-04-16T00:37:36.327Z,58.89
2023-04-16T00:38:36.510Z,58.33
2023-04-16T00:39:36.365Z,58.11
2023-04-16T00:40:36.398Z,57.69
2023-04-16T00:41:36.406Z,57.75
2023-04-16T00:42:37.549Z,57.37
2023-04-16T00:43:36.475Z,58.28
2023-04-16T00:44:36.523Z,57.91
2023-04-16T00:45:36.540Z,57.64
2023-04-16T00:46:37.001Z,57.82
2023-04-16T00:47:36.597Z,58.55
2023-04-16T00:48:36.953Z,57.71
2023-04-16T00:49:36.597Z,57.65
2023-04-16T00:50:36.679Z,57.62
2023-04-16T00:51:36.739Z,57.49
2023-04-16T00:52:36.772Z,57.94
2023-04-16T00:53:36.848Z,57.91
2023-04-16T00:54:36.860Z,57.87
2023-04-16T00:55:36.886Z,57.63
2023-04-16T00:56:36.892Z,58.15
2023-04-16T00:57:36.927Z,57.46
2023-04-16T00:58:38.028Z,57.65
2023-04-16T00:59:36.946Z,57.62
2023-04-16T01:00:37.947Z,58.24
2023-04-16T01:01:37.063Z,57.86
2023-04-16T01:02:37.211Z,57.75
2023-04-16T01:03:37.274Z,57.70
2023-04-16T01:04:37.153Z,57.31
2023-04-16T01:05:37.167Z,57.40
2023-04-16T01:06:37.247Z,56.85
2023-04-16T01:07:37.223Z,55.83
2023-04-16T01:08:37.292Z,55.66
2023-04-16T01:09:37.292Z,55.42
2023-04-16T01:10:37.284Z,55.45
2023-04-16T01:11:37.394Z,55.80
2023-04-16T01:12:37.325Z,55.85
2023-04-16T01:13:37.373Z,55.50
2023-04-16T01:14:37.392Z,55.28
2023-04-16T01:15:37.472Z,55.18
2023-04-16T01:16:38.457Z,55.83
2023-04-16T01:17:37.643Z,55.54
2023-04-16T01:18:37.592Z,55.52
2023-04-16T01:19:37.584Z,55.59
2023-04-16T01:20:37.582Z,56.45
2023-04-16T01:21:37.632Z,56.38
2023-04-16T01:22:37.696Z,56.45
2023-04-16T01:23:37.771Z,56.06
2023-04-16T01:24:37.799Z,55.95
2023-04-16T01:25:37.850Z,56.15
2023-04-16T01:26:37.906Z,56.02
2023-04-16T01:27:37.989Z,55.79
2023-04-16T01:28:37.979Z,56.39
2023-04-16T01:29:38.027Z,56.04
2023-04-16T01:30:38.136Z,55.88
2023-04-16T01:31:38.176Z,55.83
2023-04-16T01:32:38.199Z,55.71
2023-04-16T01:33:38.173Z,55.47
2023-04-16T01:34:38.180Z,55.48
2023-04-16T01:35:38.241Z,55.56
2023-04-16T01:36:38.210Z,55.93
2023-04-16T01:37:38.492Z,56.24
2023-04-16T01:38:38.259Z,56.30
2023-04-16T01:39:38.319Z,56.17
2023-04-16T01:40:38.351Z,56.47
2023-04-16T01:41:38.377Z,56.27
2023-04-16T01:42:38.455Z,56.08
2023-04-16T01:43:40.208Z,56.26
2023-04-16T01:44:38.563Z,56.36
2023-04-16T01:45:38.651Z,56.05
2023-04-16T01:46:38.665Z,56.13
2023-04-16T01:47:38.729Z,56.21
2023-04-16T01:48:38.737Z,56.43
2023-04-16T01:49:38.727Z,56.46
2023-04-16T01:50:38.790Z,56.50
2023-04-16T01:51:38.859Z,56.72
2023-04-16T01:52:38.870Z,56.47
2023-04-16T01:53:38.934Z,56.23
2023-04-16T01:54:38.966Z,56.37
2023-04-16T01:55:38.994Z,56.38
2023-04-16T01:56:38.995Z,56.14
2023-04-16T01:57:39.059Z,56.03
2023-04-16T01:58:39.104Z,55.80
2023-04-16T01:59:39.055Z,55.54
2023-04-16T02:00:40.012Z,55.37
2023-04-16T02:01:39.145Z,55.34
2023-04-16T02:02:39.287Z,55.29
2023-04-16T02:03:39.266Z,55.67
2023-04-16T02:04:39.251Z,55.51
2023-04-16T02:05:39.289Z,55.30
2023-04-16T02:06:39.360Z,55.31
2023-04-16T02:07:39.373Z,55.37
2023-04-16T02:08:39.433Z,55.01
2023-04-16T02:09:39.489Z,55.06
2023-04-16T02:10:39.583Z,55.01
2023-04-16T02:11:39.538Z,54.98
2023-04-16T02:12:39.956Z,54.90
2023-04-16T02:13:39.567Z,54.89
2023-04-16T02:14:39.583Z,55.02
2023-04-16T02:15:39.604Z,55.30
2023-04-16T02:16:40.534Z,55.26
2023-04-16T02:17:40.017Z,55.74
2023-04-16T02:18:39.647Z,55.70
2023-04-16T02:19:39.652Z,55.84
2023-04-16T02:20:39.644Z,55.91
2023-04-16T02:21:39.681Z,55.78
2023-04-16T02:22:39.678Z,55.72
2023-04-16T02:23:39.693Z,56.09
2023-04-16T02:24:39.776Z,56.79
2023-04-16T02:25:40.495Z,56.82
2023-04-16T02:26:39.803Z,56.54
2023-04-16T02:27:39.838Z,56.35
2023-04-16T02:28:39.894Z,56.21
2023-04-16T02:29:39.904Z,56.19
2023-04-16T02:30:40.067Z,55.96
2023-04-16T02:31:40.056Z,56.35
2023-04-16T02:32:40.198Z,56.57
2023-04-16T02:33:40.146Z,56.30
2023-04-16T02:34:40.290Z,56.20
2023-04-16T02:35:40.230Z,56.15
2023-04-16T02:36:40.250Z,55.77
2023-04-16T02:37:40.512Z,55.85
2023-04-16T02:38:40.395Z,55.87
2023-04-16T02:39:40.399Z,55.80
2023-04-16T02:40:42.995Z,55.81
2023-04-16T02:41:40.740Z,56.41
2023-04-16T02:42:40.733Z,56.20
2023-04-16T02:43:40.754Z,56.06
2023-04-16T02:44:40.846Z,55.93
2023-04-16T02:45:40.900Z,56.15
2023-04-16T02:46:40.888Z,55.90
2023-04-16T02:47:40.955Z,55.88
2023-04-16T02:48:40.976Z,55.85
2023-04-16T02:49:40.975Z,55.98
2023-04-16T02:50:41.009Z,55.75
2023-04-16T02:51:41.033Z,55.62
2023-04-16T02:52:41.485Z,55.59
2023-04-16T02:53:41.058Z,55.57
2023-04-16T02:54:41.109Z,55.70
2023-04-16T02:55:41.166Z,55.48
2023-04-16T02:56:41.151Z,55.45
2023-04-16T02:57:41.185Z,55.36
2023-04-16T02:58:41.265Z,55.21
2023-04-16T02:59:41.220Z,55.50
2023-04-16T03:00:41.287Z,55.50
2023-04-16T03:01:41.368Z,55.44
2023-04-16T03:02:41.433Z,55.47
2023-04-16T03:03:41.363Z,55.07
2023-04-16T03:04:41.399Z,54.83
2023-04-16T03:05:41.368Z,54.69
2023-04-16T03:06:41.443Z,54.67
2023-04-16T03:07:41.430Z,54.71
2023-04-16T03:08:41.484Z,54.76
2023-04-16T03:09:41.513Z,54.87
2023-04-16T03:10:41.580Z,55.78
2023-04-16T03:11:41.548Z,56.52
2023-04-16T03:12:41.628Z,56.73
2023-04-16T03:13:41.620Z,56.66
2023-04-16T03:14:41.665Z,56.69
2023-04-16T03:15:41.751Z,57.12
2023-04-16T03:16:41.627Z,57.21
2023-04-16T03:17:41.679Z,56.87
2023-04-16T03:18:41.863Z,56.70
2023-04-16T03:19:41.901Z,57.04
2023-04-16T03:20:41.828Z,57.37
2023-04-16T03:21:41.898Z,57.48
2023-04-16T03:22:42.012Z,57.51
2023-04-16T03:23:41.980Z,58.13
2023-04-16T03:24:42.035Z,57.68
2023-04-16T03:25:42.007Z,58.07
2023-04-16T03:26:42.024Z,59.20
2023-04-16T03:27:42.054Z,59.09
2023-04-16T03:28:42.054Z,59.98
2023-04-16T03:29:42.079Z,59.71
2023-04-16T03:30:42.160Z,59.48
2023-04-16T03:31:42.145Z,58.65
2023-04-16T03:32:42.173Z,57.95
2023-04-16T03:33:42.507Z,57.49
2023-04-16T03:34:42.225Z,57.51
2023-04-16T03:35:42.251Z,57.43
2023-04-16T03:36:42.373Z,57.14
2023-04-16T03:37:42.374Z,56.91
2023-04-16T03:38:42.458Z,56.73
2023-04-16T03:39:42.523Z,56.70
2023-04-16T03:40:42.659Z,56.51
2023-04-16T03:41:42.674Z,56.39
2023-04-16T03:42:42.725Z,56.99
2023-04-16T03:43:42.753Z,56.54
2023-04-16T03:44:42.784Z,56.75
2023-04-16T03:45:42.855Z,57.30
2023-04-16T03:46:42.907Z,57.65
2023-04-16T03:47:42.957Z,57.09
2023-04-16T03:48:42.946Z,56.86
2023-04-16T03:49:42.992Z,56.60
2023-04-16T03:50:42.996Z,56.36
2023-04-16T03:51:43.109Z,56.70
2023-04-16T03:52:43.037Z,56.35
2023-04-16T03:53:43.089Z,56.26
2023-04-16T03:54:43.111Z,56.36
2023-04-16T03:55:43.143Z,56.32
2023-04-16T03:56:43.213Z,56.36
2023-04-16T03:57:43.253Z,56.49
2023-04-16T03:58:43.259Z,57.08
2023-04-16T03:59:43.259Z,57.19
2023-04-16T04:00:44.051Z,57.53
2023-04-16T04:01:43.259Z,57.58
2023-04-16T04:04:43.436Z,59.32
2023-04-16T04:05:43.330Z,59.38
2023-04-16T04:06:43.403Z,60.05
2023-04-16T04:07:43.364Z,59.33
2023-04-16T04:08:43.427Z,59.54
2023-04-16T04:09:43.553Z,59.79
2023-04-16T04:10:43.484Z,59.64
2023-04-16T04:11:43.505Z,59.61
2023-04-16T04:12:43.513Z,60.37
2023-04-16T04:13:43.588Z,59.99
2023-04-16T04:14:43.583Z,60.28
2023-04-16T04:15:43.619Z,60.23
2023-04-16T04:16:43.764Z,59.84
2023-04-16T04:17:43.740Z,59.98
2023-04-16T04:18:44.571Z,59.25
2023-04-16T04:19:54.316Z,59.24
2023-04-16T04:20:45.494Z,59.91
2023-04-16T04:21:43.692Z,60.47
2023-04-16T04:22:43.713Z,59.94
2023-04-16T04:23:43.768Z,60.44
2023-04-16T04:24:43.678Z,61.04
2023-04-16T04:25:43.751Z,61.14
2023-04-16T04:26:43.665Z,61.05
2023-04-16T04:27:43.686Z,60.62
2023-04-16T04:28:43.668Z,60.61
2023-04-16T04:29:43.704Z,60.56
2023-04-16T04:30:43.683Z,60.23
2023-04-16T04:31:43.691Z,61.21
2023-04-16T04:32:43.726Z,61.56
2023-04-16T04:33:43.636Z,61.80
2023-04-16T04:34:43.681Z,61.82
2023-04-16T04:35:43.731Z,62.60
2023-04-16T04:36:43.720Z,62.85
2023-04-16T04:37:43.768Z,62.83
2023-04-16T04:38:43.788Z,63.74
2023-04-16T04:39:43.801Z,63.54
2023-04-16T04:40:43.828Z,63.88
2023-04-16T04:41:43.829Z,63.69
2023-04-16T04:42:44.536Z,63.43
2023-04-16T04:43:43.873Z,62.91
2023-04-16T04:44:43.931Z,63.16
2023-04-16T04:45:43.982Z,62.90
2023-04-16T04:46:44.084Z,62.35
2023-04-16T04:47:44.128Z,62.00
2023-04-16T04:48:44.113Z,61.43
2023-04-16T04:49:44.098Z,61.05
2023-04-16T04:50:44.172Z,60.48
2023-04-16T04:51:44.232Z,60.36
2023-04-16T04:52:44.251Z,60.09
2023-04-16T04:53:44.300Z,60.19
2023-04-16T04:54:44.442Z,59.73
2023-04-16T04:55:44.405Z,60.13
2023-04-16T04:56:44.411Z,60.07
2023-04-16T04:57:44.458Z,59.86
2023-04-16T04:58:44.457Z,60.17
2023-04-16T04:59:44.467Z,60.31
2023-04-16T05:00:44.603Z,60.36
2023-04-16T05:01:44.552Z,60.07
2023-04-16T05:02:44.661Z,59.96
2023-04-16T05:03:44.730Z,61.29
2023-04-16T05:04:44.655Z,61.20
2023-04-16T05:05:45.511Z,60.39
2023-04-16T05:06:44.668Z,60.78
2023-04-16T05:07:44.739Z,61.77
2023-04-16T05:08:44.744Z,61.81
2023-04-16T05:09:44.758Z,61.57
2023-04-16T05:10:44.787Z,61.52
2023-04-16T05:11:44.889Z,61.79
2023-04-16T05:12:44.901Z,61.11
2023-04-16T05:13:44.916Z,60.91
2023-04-16T05:14:44.907Z,60.31
2023-04-16T05:15:44.931Z,61.30
2023-04-16T05:16:45.016Z,61.20
2023-04-16T05:17:45.075Z,61.27
2023-04-16T05:18:45.092Z,61.00
2023-04-16T05:19:45.067Z,61.83
2023-04-16T05:20:45.129Z,62.09
2023-04-16T05:21:45.145Z,61.33
2023-04-16T05:22:45.251Z,61.47
2023-04-16T05:23:45.283Z,61.04
2023-04-16T05:24:45.304Z,61.52
2023-04-16T05:25:45.302Z,60.81
2023-04-16T05:26:45.347Z,60.22
2023-04-16T05:27:45.322Z,60.79
2023-04-16T05:28:45.591Z,60.26
2023-04-16T05:29:45.368Z,60.15
2023-04-16T05:30:45.537Z,60.51
2023-04-16T05:31:45.434Z,60.53
2023-04-16T05:32:45.522Z,60.50
2023-04-16T05:33:45.482Z,60.73
2023-04-16T05:34:45.478Z,60.55
2023-04-16T05:35:45.552Z,60.86
2023-04-16T05:36:45.626Z,60.96
2023-04-16T05:37:45.639Z,61.33
2023-04-16T05:38:45.760Z,61.15
2023-04-16T05:39:45.740Z,62.09
2023-04-16T05:40:46.518Z,61.87
2023-04-16T05:41:45.781Z,62.24
2023-04-16T05:42:45.796Z,62.09
2023-04-16T05:43:45.814Z,61.78
2023-04-16T05:44:45.870Z,61.90
2023-04-16T05:45:45.875Z,61.56
2023-04-16T05:46:45.917Z,61.37
2023-04-16T05:47:46.051Z,61.59
2023-04-16T05:48:46.117Z,61.84
2023-04-16T05:49:46.538Z,61.37
2023-04-16T05:50:46.236Z,61.34
2023-04-16T05:51:46.206Z,61.00
2023-04-16T05:52:46.236Z,60.33
2023-04-16T05:53:46.301Z,59.84
2023-04-16T05:54:46.263Z,59.86
2023-04-16T05:55:46.356Z,59.16
2023-04-16T05:56:46.359Z,58.78
2023-04-16T05:57:46.397Z,58.65
2023-04-16T05:58:46.544Z,58.32
2023-04-16T05:59:46.458Z,59.62
2023-04-16T06:00:46.483Z,59.41
2023-04-16T06:01:46.548Z,59.71
2023-04-16T06:02:46.647Z,59.14
2023-04-16T06:03:46.572Z,59.38
2023-04-16T06:04:46.559Z,59.14
2023-04-16T06:05:46.686Z,59.43
2023-04-16T06:06:46.690Z,59.29
2023-04-16T06:07:46.666Z,59.18
2023-04-16T06:08:46.677Z,59.31
2023-04-16T06:09:46.761Z,59.00
2023-04-16T06:10:46.867Z,58.77
2023-04-16T06:11:46.835Z,58.98
2023-04-16T06:12:46.853Z,59.48
2023-04-16T06:13:46.888Z,59.46
2023-04-16T06:14:46.887Z,59.19
2023-04-16T06:15:46.953Z,58.51
2023-04-16T06:16:46.921Z,58.67
2023-04-16T06:17:46.987Z,58.01
2023-04-16T06:18:47.024Z,58.06
2023-04-16T06:19:46.991Z,58.58
2023-04-16T06:20:47.010Z,59.20
2023-04-16T06:21:47.028Z,58.94
2023-04-16T06:22:47.041Z,59.03
2023-04-16T06:23:47.060Z,59.52
2023-04-16T06:24:47.544Z,59.11
2023-04-16T06:25:47.127Z,58.54
2023-04-16T06:26:47.172Z,58.19
2023-04-16T06:27:47.191Z,57.65
2023-04-16T06:28:47.261Z,57.34
2023-04-16T06:29:47.261Z,57.69
2023-04-16T06:30:47.289Z,57.39
2023-04-16T06:31:47.310Z,57.11
2023-04-16T06:32:47.350Z,57.09
2023-04-16T06:33:47.393Z,56.54
2023-04-16T06:34:47.365Z,57.69
2023-04-16T06:35:47.336Z,57.73
2023-04-16T06:36:47.357Z,57.09
2023-04-16T06:37:47.372Z,57.43
2023-04-16T06:38:47.396Z,58.42
2023-04-16T06:39:47.393Z,57.66
2023-04-16T06:40:47.432Z,56.90
2023-04-16T06:41:47.441Z,57.43
2023-04-16T06:42:47.452Z,57.02
2023-04-16T06:43:47.462Z,56.94
2023-04-16T06:44:47.509Z,57.91
2023-04-16T06:45:47.577Z,57.55
2023-04-16T06:46:47.620Z,59.01
2023-04-16T06:47:47.615Z,58.55
2023-04-16T06:48:47.629Z,58.02
2023-04-16T06:49:47.658Z,57.48
2023-04-16T06:50:47.642Z,57.16
2023-04-16T06:51:47.739Z,57.22
2023-04-16T06:52:47.740Z,57.62
2023-04-16T06:53:47.775Z,57.19
2023-04-16T06:54:47.791Z,57.85
2023-04-16T06:55:47.804Z,57.94
2023-04-16T06:56:47.832Z,58.95
2023-04-16T06:57:47.846Z,57.80
2023-04-16T06:58:47.895Z,57.92
2023-04-16T06:59:47.941Z,59.16
2023-04-16T07:00:48.066Z,58.41
2023-04-16T07:01:48.175Z,58.34
2023-04-16T07:02:48.169Z,58.07
2023-04-16T07:03:48.445Z,57.98
2023-04-16T07:04:48.116Z,57.70
2023-04-16T07:05:48.141Z,59.16
2023-04-16T07:06:48.149Z,58.81
2023-04-16T07:07:48.112Z,58.22
2023-04-16T07:08:48.248Z,58.60
2023-04-16T07:09:48.152Z,57.33
2023-04-16T07:10:48.199Z,58.44
2023-04-16T07:11:48.192Z,57.42
2023-04-16T07:12:48.223Z,59.52
2023-04-16T07:13:48.229Z,57.80
2023-04-16T07:14:48.273Z,58.31
2023-04-16T07:15:48.265Z,58.60
2023-04-16T07:16:48.360Z,58.80
2023-04-16T07:17:48.338Z,59.12
2023-04-16T07:18:48.358Z,58.94
2023-04-16T07:19:48.360Z,57.90
2023-04-16T07:20:48.369Z,58.20
2023-04-16T07:21:48.453Z,57.08
2023-04-16T07:22:48.531Z,57.05
2023-04-16T07:23:48.580Z,59.61
2023-04-16T07:24:48.485Z,56.86
2023-04-16T07:25:48.535Z,56.52
2023-04-16T07:26:48.521Z,56.13
2023-04-16T07:27:48.548Z,56.63
2023-04-16T07:28:48.564Z,56.37
2023-04-16T07:29:48.683Z,57.17
2023-04-16T07:30:48.652Z,56.45
2023-04-16T07:31:48.752Z,56.60
2023-04-16T07:32:48.792Z,56.71
2023-04-16T07:33:48.762Z,55.82
2023-04-16T07:34:48.774Z,56.98
2023-04-16T07:35:49.112Z,57.54
2023-04-16T07:36:48.786Z,56.67
2023-04-16T07:37:48.903Z,56.78
2023-04-16T07:38:48.802Z,57.96
2023-04-16T07:39:48.872Z,56.14
2023-04-16T07:40:48.887Z,56.39
2023-04-16T07:41:48.917Z,56.67
2023-04-16T07:42:48.986Z,56.99
2023-04-16T07:43:49.005Z,55.04
2023-04-16T07:44:49.568Z,54.90
2023-04-16T07:45:49.001Z,56.78
2023-04-16T07:46:49.049Z,57.06
2023-04-16T07:47:49.097Z,56.60
2023-04-16T07:48:49.064Z,56.13
2023-04-16T07:49:49.084Z,57.54
2023-04-16T07:50:49.073Z,56.50
2023-04-16T07:51:49.130Z,55.03
2023-04-16T07:52:49.164Z,55.86
2023-04-16T07:53:49.237Z,55.49
2023-04-16T07:54:49.245Z,55.07
2023-04-16T07:55:49.268Z,55.70
2023-04-16T07:56:49.281Z,54.15
2023-04-16T07:57:49.307Z,53.93
2023-04-16T07:58:49.322Z,54.02
2023-04-16T07:59:49.349Z,55.13
2023-04-16T08:00:50.997Z,54.32
2023-04-16T08:01:49.439Z,53.87
2023-04-16T08:02:49.598Z,54.34
2023-04-16T08:03:49.646Z,53.83
2023-04-16T08:04:49.573Z,53.98
2023-04-16T08:05:49.588Z,52.50
2023-04-16T08:06:49.577Z,53.09
2023-04-16T08:07:49.642Z,52.22
2023-04-16T08:08:49.672Z,53.64
2023-04-16T08:09:49.678Z,52.99
2023-04-16T08:10:50.164Z,54.40
2023-04-16T08:11:49.745Z,53.88
2023-04-16T08:12:49.746Z,51.92
2023-04-16T08:13:49.846Z,52.79
2023-04-16T08:14:49.824Z,52.58
2023-04-16T08:15:50.065Z,52.72
2023-04-16T08:16:49.949Z,52.67
2023-04-16T08:17:50.087Z,52.68
2023-04-16T08:18:50.064Z,52.61
2023-04-16T08:19:50.046Z,52.28
2023-04-16T08:20:50.154Z,52.16
2023-04-16T08:21:50.122Z,51.67
2023-04-16T08:22:50.169Z,51.77
2023-04-16T08:23:50.215Z,52.98
2023-04-16T08:24:50.201Z,51.39
2023-04-16T08:25:51.762Z,51.87
2023-04-16T08:26:50.232Z,51.10
2023-04-16T08:27:50.281Z,52.20
2023-04-16T08:28:50.552Z,50.70
2023-04-16T08:29:50.383Z,50.95
2023-04-16T08:30:50.435Z,50.68
2023-04-16T08:31:50.521Z,50.14
2023-04-16T08:32:50.660Z,49.60
2023-04-16T08:33:50.655Z,50.19
2023-04-16T08:34:50.592Z,50.09
2023-04-16T08:35:51.558Z,49.66
2023-04-16T08:36:50.649Z,50.35
2023-04-16T08:37:50.669Z,50.70
2023-04-16T08:38:50.750Z,50.36
2023-04-16T08:39:50.754Z,49.70
2023-04-16T08:40:51.594Z,49.64
2023-04-16T08:41:50.885Z,49.42
2023-04-16T08:42:50.920Z,49.15
2023-04-16T08:43:50.931Z,49.01
2023-04-16T08:44:50.988Z,48.17
2023-04-16T08:45:50.969Z,48.43
2023-04-16T08:46:51.001Z,48.55
2023-04-16T08:47:51.166Z,47.60
2023-04-16T08:48:51.079Z,47.42
2023-04-16T08:49:51.099Z,47.50
2023-04-16T08:50:52.235Z,47.58
2023-04-16T08:51:51.182Z,47.27
2023-04-16T08:52:51.241Z,47.23
2023-04-16T08:53:51.273Z,46.98
2023-04-16T08:54:56.512Z,46.91
2023-04-16T08:55:52.351Z,46.20
2023-04-16T08:56:51.308Z,46.35
2023-04-16T08:57:51.282Z,45.80
2023-04-16T08:58:51.281Z,45.68
2023-04-16T08:59:51.285Z,45.82
2023-04-16T09:00:51.256Z,45.71
2023-04-16T09:01:51.354Z,45.36
2023-04-16T09:02:51.298Z,45.23
2023-04-16T09:04:54.663Z,45.96
2023-04-16T09:05:54.665Z,45.83
2023-04-16T09:06:54.684Z,45.20
2023-04-16T09:07:54.695Z,44.99
2023-04-16T09:08:54.713Z,44.62
2023-04-16T09:09:54.647Z,44.80
2023-04-16T09:10:54.622Z,44.88
2023-04-16T09:11:54.625Z,45.62
2023-04-16T09:12:54.624Z,45.77
2023-04-16T09:13:54.610Z,46.19
2023-04-16T09:14:54.632Z,45.99
2023-04-16T09:15:54.630Z,45.83
2023-04-16T09:16:54.644Z,46.72
2023-04-16T09:17:54.636Z,46.03
2023-04-16T09:18:54.577Z,45.70
2023-04-16T09:19:54.570Z,46.02
2023-04-16T09:20:54.703Z,45.55
2023-04-16T09:21:54.617Z,46.64
2023-04-16T09:22:54.576Z,46.51
2023-04-16T09:23:54.598Z,47.27
2023-04-16T09:24:54.570Z,46.21
2023-04-16T09:25:54.560Z,45.91
2023-04-16T09:26:54.573Z,45.84
2023-04-16T09:27:54.571Z,45.13
2023-04-16T09:28:54.562Z,45.23
2023-04-16T09:29:54.565Z,45.88
2023-04-16T09:30:54.510Z,48.30
2023-04-16T09:31:54.555Z,46.94
2023-04-16T09:32:54.544Z,46.90
2023-04-16T09:33:54.535Z,46.34
2023-04-16T09:34:54.495Z,46.46
2023-04-16T09:35:54.489Z,47.15
2023-04-16T09:36:54.513Z,46.51
2023-04-16T09:37:54.477Z,47.33
2023-04-16T09:38:56.890Z,46.63
2023-04-16T09:39:54.505Z,45.94
2023-04-16T09:40:54.453Z,45.37
2023-04-16T09:41:54.463Z,45.41
2023-04-16T09:42:54.421Z,45.26
2023-04-16T09:43:54.453Z,46.53
2023-04-16T09:44:54.426Z,47.33
2023-04-16T09:45:54.467Z,47.33
2023-04-16T09:46:54.404Z,46.82
2023-04-16T09:47:54.457Z,48.03
2023-04-16T09:48:54.400Z,47.38
2023-04-16T09:49:54.394Z,47.59
2023-04-16T09:50:54.406Z,47.24
2023-04-16T09:51:54.393Z,47.70
2023-04-16T09:52:54.401Z,46.52
2023-04-16T09:53:54.391Z,46.84
2023-04-16T09:54:54.350Z,46.46
2023-04-16T09:55:54.374Z,45.37
2023-04-16T09:56:54.373Z,45.96
2023-04-16T09:57:54.437Z,45.61
2023-04-16T09:58:54.355Z,46.00
2023-04-16T09:59:54.327Z,48.71
2023-04-16T10:00:54.330Z,48.83
2023-04-16T10:02:14.354Z,47.05
2023-04-16T10:02:55.362Z,47.92
2023-04-16T10:03:54.471Z,47.57
2023-04-16T10:04:54.305Z,45.54
2023-04-16T10:05:54.285Z,46.24
2023-04-16T10:06:54.295Z,47.22
2023-04-16T10:07:54.237Z,46.57
2023-04-16T10:08:54.338Z,46.73
2023-04-16T10:09:54.234Z,46.38
2023-04-16T10:10:54.252Z,48.16
2023-04-16T10:11:54.262Z,48.41
2023-04-16T10:12:54.278Z,48.39
2023-04-16T10:13:54.229Z,50.10
2023-04-16T10:14:54.268Z,49.45
2023-04-16T10:15:54.305Z,49.13
2023-04-16T10:16:54.344Z,48.85
2023-04-16T10:17:54.398Z,49.69
2023-04-16T10:18:54.342Z,50.90
2023-04-16T10:19:54.363Z,50.09
2023-04-16T10:20:54.384Z,50.26
2023-04-16T10:21:54.400Z,50.82
2023-04-16T10:22:54.437Z,50.47
2023-04-16T10:23:54.528Z,50.46
2023-04-16T10:24:54.501Z,49.84
2023-04-16T10:25:56.402Z,49.95
2023-04-16T10:26:54.572Z,50.18
2023-04-16T10:27:55.507Z,51.77
2023-04-16T10:28:54.601Z,50.35
2023-04-16T10:29:54.524Z,51.38
2023-04-16T10:30:54.650Z,50.97
2023-04-16T10:31:54.514Z,52.01
2023-04-16T10:32:54.555Z,51.61
2023-04-16T10:33:54.513Z,48.58
2023-04-16T10:34:54.566Z,48.10
2023-04-16T10:36:06.794Z,50.61
2023-04-16T10:36:55.519Z,49.09
2023-04-16T10:37:54.467Z,48.74
2023-04-16T10:38:54.484Z,49.60
2023-04-16T10:39:54.482Z,50.94
2023-04-16T10:40:54.456Z,48.81
2023-04-16T10:41:54.451Z,51.38
2023-04-16T10:42:54.460Z,48.75
2023-04-16T10:43:54.431Z,49.26
2023-04-16T10:44:54.499Z,47.86
2023-04-16T10:45:54.435Z,47.73
2023-04-16T10:46:54.461Z,48.74
2023-04-16T10:47:54.451Z,46.96
2023-04-16T10:48:54.436Z,48.15
2023-04-16T10:49:54.403Z,50.98
2023-04-16T10:50:54.401Z,49.11
2023-04-16T10:51:54.367Z,48.57
2023-04-16T10:52:54.400Z,48.90
2023-04-16T10:53:54.407Z,48.94
2023-04-16T10:54:54.465Z,50.20
2023-04-16T10:55:54.487Z,51.12
2023-04-16T10:56:54.484Z,49.87
2023-04-16T10:57:54.537Z,47.76
2023-04-16T10:58:54.612Z,49.08
2023-04-16T10:59:54.644Z,48.58
2023-04-16T11:00:54.620Z,51.60
2023-04-16T11:01:54.858Z,48.88
2023-04-16T11:02:54.869Z,47.67
2023-04-16T11:03:54.904Z,48.30
2023-04-16T11:04:54.819Z,46.84
2023-04-16T11:05:54.888Z,47.45
2023-04-16T11:06:54.823Z,48.13
2023-04-16T11:07:54.884Z,47.95
2023-04-16T11:08:55.404Z,50.71
2023-04-16T11:09:54.969Z,46.91
2023-04-16T11:10:55.001Z,47.62
2023-04-16T11:11:55.056Z,47.38
2023-04-16T11:12:55.069Z,48.50
2023-04-16T11:13:55.079Z,51.34
2023-04-16T11:14:55.100Z,47.13
2023-04-16T11:15:55.150Z,49.49
2023-04-16T11:16:55.143Z,48.33
2023-04-16T11:17:55.249Z,51.39
2023-04-16T11:18:56.816Z,48.14
2023-04-16T11:19:55.260Z,47.03
2023-04-16T11:20:55.259Z,48.96
2023-04-16T11:21:55.298Z,49.53
2023-04-16T11:22:55.318Z,49.79
2023-04-16T11:23:58.561Z,47.20
2023-04-16T11:24:55.332Z,48.37
2023-04-16T11:25:55.345Z,48.50
2023-04-16T11:26:55.307Z,46.76
2023-04-16T11:27:55.335Z,47.21
2023-04-16T11:28:55.300Z,47.33
2023-04-16T11:29:55.329Z,47.23
2023-04-16T11:30:55.283Z,49.54
2023-04-16T11:31:55.380Z,48.47
2023-04-16T11:32:55.355Z,47.68
2023-04-16T11:33:55.315Z,47.72
2023-04-16T11:34:55.292Z,48.61
2023-04-16T11:35:55.282Z,46.52
2023-04-16T11:36:55.246Z,46.37
2023-04-16T11:37:55.275Z,46.16
2023-04-16T11:38:55.262Z,45.86
2023-04-16T11:39:55.261Z,48.50
2023-04-16T11:40:55.228Z,45.23
2023-04-16T11:41:55.233Z,46.46
2023-04-16T11:42:55.255Z,46.19
2023-04-16T11:43:55.235Z,46.29
2023-04-16T11:44:55.214Z,44.94
2023-04-16T11:45:55.213Z,46.19
2023-04-16T11:46:55.249Z,46.50
2023-04-16T11:47:55.356Z,47.31
2023-04-16T11:48:55.175Z,47.61
2023-04-16T11:49:55.193Z,49.67
2023-04-16T11:50:55.156Z,45.97
2023-04-16T11:51:55.179Z,47.34
2023-04-16T11:52:55.177Z,46.13
2023-04-16T11:53:55.181Z,47.77
2023-04-16T11:54:55.133Z,46.04
2023-04-16T11:55:55.142Z,46.94
2023-04-16T11:56:55.154Z,46.39
2023-04-16T11:57:55.129Z,46.34
2023-04-16T11:58:55.188Z,46.00
2023-04-16T12:00:01.361Z,46.70
2023-04-16T12:00:56.116Z,47.35
2023-04-16T12:01:55.223Z,47.11
2023-04-16T12:02:55.486Z,48.41
2023-04-16T12:03:55.404Z,45.67
2023-04-16T12:04:55.187Z,45.56
2023-04-16T12:05:55.066Z,45.23
2023-04-16T12:06:55.099Z,45.01
2023-04-16T12:07:55.104Z,46.38
2023-04-16T12:08:55.069Z,45.23
2023-04-16T12:09:55.057Z,46.54
2023-04-16T12:10:55.072Z,46.82
2023-04-16T12:11:55.042Z,46.51
2023-04-16T12:12:55.149Z,47.64
2023-04-16T12:13:55.028Z,48.65
2023-04-16T12:14:55.040Z,46.08
2023-04-16T12:15:55.008Z,47.45
2023-04-16T12:16:55.062Z,46.14
2023-04-16T12:17:55.048Z,45.38
2023-04-16T12:18:55.016Z,46.68
2023-04-16T12:19:55.016Z,47.55
2023-04-16T12:20:55.121Z,46.58
2023-04-16T12:21:55.124Z,47.65
2023-04-16T12:22:55.184Z,48.37
2023-04-16T12:23:55.207Z,47.31
2023-04-16T12:24:55.243Z,46.15
2023-04-16T12:25:55.299Z,47.30
2023-04-16T12:26:55.361Z,48.18
2023-04-16T12:27:55.400Z,48.43
2023-04-16T12:28:55.437Z,46.80
2023-04-16T12:29:55.493Z,47.73
2023-04-16T12:30:55.605Z,47.99
2023-04-16T12:31:55.549Z,47.01
2023-04-16T12:32:56.637Z,48.48
2023-04-16T12:33:55.765Z,48.90
2023-04-16T12:34:55.520Z,48.36
2023-04-16T12:35:55.526Z,48.73
2023-04-16T12:36:55.549Z,46.71
2023-04-16T12:37:55.519Z,47.89
2023-04-16T12:38:55.545Z,47.60
2023-04-16T12:39:55.502Z,47.68
2023-04-16T12:40:55.530Z,46.70
2023-04-16T12:41:55.493Z,47.71
2023-04-16T12:42:55.501Z,47.06
2023-04-16T12:43:55.487Z,48.83
2023-04-16T12:44:55.452Z,49.91
2023-04-16T12:45:55.501Z,48.56
2023-04-16T12:46:55.433Z,49.35
2023-04-16T12:47:55.479Z,48.25
2023-04-16T12:48:55.461Z,48.67
2023-04-16T12:49:55.452Z,48.31
2023-04-16T12:50:55.443Z,49.04
2023-04-16T12:51:55.415Z,49.20
2023-04-16T12:52:55.401Z,49.89
2023-04-16T12:53:55.407Z,51.06
2023-04-16T12:54:55.416Z,50.32
2023-04-16T12:55:55.486Z,50.03